Time;durP1;ratioP1;P1;durP2;ratioP2;P2;SDS_P1;SDS_P2;PMS_P1;PMS_P2;Temp;Humidity;BMP_temperature;BMP_pressure;BME280_temperature;BME280_humidity;BME280_pressure;Samples;Min_cycle;Max_cycle;Signal;HPM_P1;HPM_P2
2021/11/04 00:00:43;;;;;;;;;;;18.90;72.30;;;;;;4973581;28;19930;-44
2021/11/04 00:03:10;;;;;;;;;;;18.90;72.40;;;;;;4975898;28;19926;-44
2021/11/04 00:05:37;;;;;;;;;;;18.90;72.30;;;;;;4975800;28;19930;-44
2021/11/04 00:08:04;;;;;;;;;;;18.90;72.30;;;;;;4976103;28;19930;-43
2021/11/04 00:10:33;;;;;;;;;;;18.90;72.30;;;;;;4976030;28;20345;-45
2021/11/04 00:13:00;;;;;;;;;;;18.90;72.20;;;;;;4976815;28;19926;-45
2021/11/04 00:15:27;;;;;;;;;;;18.90;72.20;;;;;;4974626;28;19930;-44
2021/11/04 00:17:56;;;;;;;;;;;18.90;72.30;;;;;;4974655;28;20334;-44
2021/11/04 00:20:23;;;;;;;;;;;18.90;72.20;;;;;;4975493;28;19933;-44
2021/11/04 00:22:50;;;;;;;;;;;18.90;72.20;;;;;;4975655;28;20333;-44
2021/11/04 00:25:20;;;;;;;;;;;18.90;72.20;;;;;;4975812;28;19948;-45
2021/11/04 00:27:47;;;;;;;;;;;18.90;72.20;;;;;;4975790;28;19927;-45
2021/11/04 00:30:15;;;;;;;;;;;18.90;72.20;;;;;;4975733;28;19930;-44
2021/11/04 00:32:47;;;;;;;;;;;18.90;72.20;;;;;;4973326;28;20381;-45
2021/11/04 00:35:14;;;;;;;;;;;18.90;72.20;;;;;;4975659;28;19949;-44
2021/11/04 00:37:41;;;;;;;;;;;18.90;72.10;;;;;;4975314;28;20416;-44
2021/11/04 00:40:10;;;;;;;;;;;18.90;72.10;;;;;;4975202;28;19926;-45
2021/11/04 00:42:38;;;;;;;;;;;18.90;72.10;;;;;;4975211;28;19926;-44
2021/11/04 00:45:06;;;;;;;;;;;18.80;72.00;;;;;;4975225;28;19937;-44
2021/11/04 00:47:33;;;;;;;;;;;18.80;72.00;;;;;;4961024;28;20444;-44
2021/11/04 00:50:00;;;;;;;;;;;18.90;72.00;;;;;;4956176;28;20330;-45
2021/11/04 00:52:27;;;;;;;;;;;18.80;72.00;;;;;;4955766;28;19977;-45
2021/11/04 00:54:54;;;;;;;;;;;18.90;72.10;;;;;;4954402;29;19926;-45
2021/11/04 00:57:21;;;;;;;;;;;18.80;71.90;;;;;;4955782;28;19977;-44
2021/11/04 00:59:48;;;;;;;;;;;18.90;72.70;;;;;;4956066;28;19973;-47
2021/11/04 01:02:16;;;;;;;;;;;18.80;71.90;;;;;;4966516;28;19926;-51
2021/11/04 01:04:43;;;;;;;;;;;18.80;71.90;;;;;;4975332;28;20263;-46
2021/11/04 01:07:10;;;;;;;;;;;18.90;72.00;;;;;;4974968;28;19926;-50
2021/11/04 01:09:37;;;;;;;;;;;18.90;72.00;;;;;;4974955;28;19980;-46
2021/11/04 01:12:04;;;;;;;;;;;18.90;72.00;;;;;;4977429;28;19973;-46
2021/11/04 01:14:31;;;;;;;;;;;18.80;71.90;;;;;;4979256;28;19949;-46
2021/11/04 01:16:58;;;;;;;;;;;18.80;71.90;;;;;;4977451;28;19965;-46
2021/11/04 01:19:25;;;;;;;;;;;18.80;71.90;;;;;;4978902;28;20385;-47
2021/11/04 01:21:52;;;;;;;;;;;18.90;71.90;;;;;;4978999;28;19930;-46
2021/11/04 01:24:19;;;;;;;;;;;18.80;71.90;;;;;;4978977;28;19933;-46
2021/11/04 01:26:46;;;;;;;;;;;18.90;72.00;;;;;;4979040;28;19976;-50
2021/11/04 01:29:13;;;;;;;;;;;18.80;71.80;;;;;;4978705;28;20389;-50
2021/11/04 01:31:40;;;;;;;;;;;18.90;71.90;;;;;;4977019;28;19989;-46
2021/11/04 01:34:07;;;;;;;;;;;18.80;71.80;;;;;;4978937;28;19981;-53
2021/11/04 01:36:34;;;;;;;;;;;18.80;71.80;;;;;;4978592;28;20380;-51
2021/11/04 01:39:01;;;;;;;;;;;18.80;71.80;;;;;;4978525;28;19926;-48
2021/11/04 01:41:28;;;;;;;;;;;18.90;71.90;;;;;;4978408;28;19977;-46
2021/11/04 01:43:56;;;;;;;;;;;18.80;71.80;;;;;;4978440;28;19926;-47
2021/11/04 01:46:23;;;;;;;;;;;18.90;71.80;;;;;;4977699;28;20329;-49
2021/11/04 01:48:50;;;;;;;;;;;18.90;71.80;;;;;;4977608;28;19933;-47
2021/11/04 01:51:18;;;;;;;;;;;18.90;71.80;;;;;;4978220;28;19930;-47
2021/11/04 01:53:46;;;;;;;;;;;18.80;71.70;;;;;;4978176;28;19926;-52
2021/11/04 01:56:13;;;;;;;;;;;18.90;71.90;;;;;;4978547;28;19926;-50
2021/11/04 01:58:40;;;;;;;;;;;18.80;71.70;;;;;;4978194;28;19983;-50
2021/11/04 02:01:07;;;;;;;;;;;18.80;71.70;;;;;;4978347;28;19952;-51
2021/11/04 02:03:44;;;;;;;;;;;18.80;71.70;;;;;;4976558;28;20393;-47
2021/11/04 02:06:17;;;;;;;;;;;18.80;71.70;;;;;;4977985;28;19968;-50
2021/11/04 02:08:51;;;;;;;;;;;18.90;71.80;;;;;;4977999;28;19926;-47
2021/11/04 02:11:23;;;;;;;;;;;18.90;71.80;;;;;;4977978;28;19930;-45
2021/11/04 02:13:53;;;;;;;;;;;18.80;71.70;;;;;;4978199;28;19933;-51
2021/11/04 02:16:22;;;;;;;;;;;18.90;71.80;;;;;;4977845;28;20381;-50
2021/11/04 02:18:50;;;;;;;;;;;18.80;71.70;;;;;;4975972;28;19935;-48
2021/11/04 02:21:52;;;;;;;;;;;18.80;71.70;;;;;;4977613;28;20444;-50
2021/11/04 02:24:42;;;;;;;;;;;18.80;71.60;;;;;;4974474;28;19926;-47
2021/11/04 02:27:10;;;;;;;;;;;18.80;71.70;;;;;;4959912;28;19981;-47
2021/11/04 02:29:41;;;;;;;;;;;18.90;71.70;;;;;;4975604;28;19926;-47
2021/11/04 02:32:09;;;;;;;;;;;18.80;71.60;;;;;;4973943;28;19961;-49
2021/11/04 02:34:37;;;;;;;;;;;18.90;71.70;;;;;;4975569;28;20353;-51
2021/11/04 02:37:05;;;;;;;;;;;18.80;71.60;;;;;;4975489;28;20384;-48
2021/11/04 02:39:33;;;;;;;;;;;18.90;71.70;;;;;;4975600;28;19926;-47
2021/11/04 02:42:01;;;;;;;;;;;18.80;71.60;;;;;;4975326;28;19976;-44
2021/11/04 02:44:28;;;;;;;;;;;18.80;71.60;;;;;;4975346;28;19930;-45
2021/11/04 02:46:56;;;;;;;;;;;18.80;71.60;;;;;;4974475;28;19930;-47
2021/11/04 02:49:23;;;;;;;;;;;18.90;71.60;;;;;;4973794;28;19930;-46
2021/11/04 02:51:51;;;;;;;;;;;18.80;71.60;;;;;;4975213;28;19926;-48
2021/11/04 02:54:18;;;;;;;;;;;18.80;71.60;;;;;;4974896;28;19930;-51
2021/11/04 02:56:52;;;;;;;;;;;18.80;71.50;;;;;;4975129;28;19926;-46
2021/11/04 02:59:20;;;;;;;;;;;18.80;71.60;;;;;;4977064;28;19926;-47
2021/11/04 03:01:48;;;;;;;;;;;18.80;71.50;;;;;;4976963;28;19977;-49
2021/11/04 03:04:16;;;;;;;;;;;18.80;71.60;;;;;;4975279;28;19980;-49
2021/11/04 03:06:43;;;;;;;;;;;18.80;71.50;;;;;;4976975;28;19926;-47
2021/11/04 03:09:10;;;;;;;;;;;18.80;71.50;;;;;;4976915;28;19980;-49
2021/11/04 03:11:37;;;;;;;;;;;18.80;71.50;;;;;;4976873;28;19926;-47
2021/11/04 03:14:04;;;;;;;;;;;18.80;71.50;;;;;;4976830;28;19930;-47
2021/11/04 03:16:42;;;;;;;;;;;18.80;71.50;;;;;;4977044;28;19972;-50
2021/11/04 03:19:10;;;;;;;;;;;18.80;71.50;;;;;;4961915;28;19989;-47
2021/11/04 03:21:38;;;;;;;;;;;18.80;71.50;;;;;;4957526;28;19926;-48
2021/11/04 03:24:07;;;;;;;;;;;18.80;71.50;;;;;;4957526;28;19927;-49
2021/11/04 03:26:38;;;;;;;;;;;18.80;71.50;;;;;;4957296;28;19977;-47
2021/11/04 03:29:06;;;;;;;;;;;18.80;71.40;;;;;;4957294;28;19926;-48
2021/11/04 03:31:35;;;;;;;;;;;18.80;71.40;;;;;;4957188;28;19958;-49
2021/11/04 03:34:03;;;;;;;;;;;18.90;71.50;;;;;;4968839;28;19930;-48
2021/11/04 03:36:31;;;;;;;;;;;18.80;71.40;;;;;;4976389;28;19926;-50
2021/11/04 03:38:58;;;;;;;;;;;18.80;71.50;;;;;;4977162;28;19984;-47
2021/11/04 03:41:25;;;;;;;;;;;18.80;71.40;;;;;;4976528;28;19926;-47
2021/11/04 03:43:52;;;;;;;;;;;18.80;71.50;;;;;;4976236;28;19927;-50
2021/11/04 03:46:20;;;;;;;;;;;18.80;71.40;;;;;;4976506;28;20346;-46
2021/11/04 03:48:47;;;;;;;;;;;18.80;71.40;;;;;;4974645;28;20395;-44
2021/11/04 03:51:14;;;;;;;;;;;18.80;71.40;;;;;;4976349;28;19926;-44
2021/11/04 03:53:42;;;;;;;;;;;18.80;71.40;;;;;;4975792;28;19977;-44
2021/11/04 03:56:09;;;;;;;;;;;18.80;71.40;;;;;;4976031;28;19930;-48
2021/11/04 03:58:38;;;;;;;;;;;18.80;71.40;;;;;;4976266;28;19926;-44
2021/11/04 04:01:06;;;;;;;;;;;18.80;71.40;;;;;;4975938;28;19927;-44
2021/11/04 04:03:34;;;;;;;;;;;18.80;71.40;;;;;;4973895;28;19973;-45
2021/11/04 04:06:01;;;;;;;;;;;18.80;71.40;;;;;;4976706;28;19926;-43
2021/11/04 04:08:32;;;;;;;;;;;18.80;71.40;;;;;;4975795;28;19978;-44
2021/11/04 04:10:59;;;;;;;;;;;18.80;71.40;;;;;;4975802;28;19926;-44
2021/11/04 04:13:26;;;;;;;;;;;18.80;71.40;;;;;;4976039;28;20345;-45
2021/11/04 04:15:53;;;;;;;;;;;18.80;71.30;;;;;;4975675;28;19926;-44
2021/11/04 04:18:20;;;;;;;;;;;18.80;71.30;;;;;;4973746;28;19934;-46
2021/11/04 04:20:47;;;;;;;;;;;18.90;71.50;;;;;;4975511;28;19926;-44
2021/11/04 04:23:14;;;;;;;;;;;18.80;71.30;;;;;;4975650;28;19973;-44
2021/11/04 04:25:41;;;;;;;;;;;18.80;71.30;;;;;;4975845;28;20274;-44
2021/11/04 04:28:08;;;;;;;;;;;18.80;71.30;;;;;;4975475;28;20396;-45
2021/11/04 04:30:35;;;;;;;;;;;18.80;71.30;;;;;;4975458;28;19926;-45
2021/11/04 04:33:02;;;;;;;;;;;18.80;71.30;;;;;;4974650;28;19926;-47
2021/11/04 04:35:29;;;;;;;;;;;18.80;71.30;;;;;;4974586;28;20385;-44
2021/11/04 04:37:56;;;;;;;;;;;18.80;71.40;;;;;;4990243;28;20382;-48
2021/11/04 04:40:23;;;;;;;;;;;18.80;71.30;;;;;;4975629;28;19976;-48
2021/11/04 04:42:50;;;;;;;;;;;18.80;71.30;;;;;;4975185;28;19972;-45
2021/11/04 04:45:17;;;;;;;;;;;18.80;71.30;;;;;;4975942;28;19926;-45
2021/11/04 04:47:44;;;;;;;;;;;18.90;71.40;;;;;;4975130;28;20337;-46
2021/11/04 04:50:12;;;;;;;;;;;18.80;71.30;;;;;;4973806;28;19930;-44
2021/11/04 04:52:41;;;;;;;;;;;18.80;71.30;;;;;;4975135;28;19926;-44
2021/11/04 04:55:09;;;;;;;;;;;18.80;71.30;;;;;;4974890;28;19930;-43
2021/11/04 04:57:36;;;;;;;;;;;18.80;71.30;;;;;;4975402;28;20341;-45
2021/11/04 05:00:11;;;;;;;;;;;18.80;71.30;;;;;;4975361;28;19926;-44
2021/11/04 05:02:41;;;;;;;;;;;18.80;71.30;;;;;;4974566;28;19949;-44
2021/11/04 05:05:09;;;;;;;;;;;18.80;71.30;;;;;;4973552;28;20282;-45
2021/11/04 05:07:36;;;;;;;;;;;18.80;71.30;;;;;;4974979;28;19977;-44
2021/11/04 05:10:04;;;;;;;;;;;18.80;71.30;;;;;;4975757;28;19977;-44
2021/11/04 05:12:31;;;;;;;;;;;18.80;71.30;;;;;;4974940;28;20389;-44
2021/11/04 05:14:58;;;;;;;;;;;18.80;71.30;;;;;;4974879;28;20421;-44
2021/11/04 05:17:25;;;;;;;;;;;18.80;71.30;;;;;;4974857;28;19926;-44
2021/11/04 05:19:52;;;;;;;;;;;18.80;71.30;;;;;;4973463;28;20341;-44
2021/11/04 05:22:19;;;;;;;;;;;18.80;71.30;;;;;;4974993;28;19930;-51
2021/11/04 05:24:46;;;;;;;;;;;18.80;71.30;;;;;;4975019;28;19926;-49
2021/11/04 05:27:13;;;;;;;;;;;18.80;71.30;;;;;;4975107;28;19927;-51
2021/11/04 05:29:40;;;;;;;;;;;18.80;71.30;;;;;;4974654;28;19930;-50
2021/11/04 05:32:07;;;;;;;;;;;18.80;71.30;;;;;;4975015;28;19981;-50
2021/11/04 05:34:35;;;;;;;;;;;18.80;71.30;;;;;;4973252;28;20333;-51
2021/11/04 05:37:03;;;;;;;;;;;18.80;71.20;;;;;;4975013;28;19949;-52
2021/11/04 05:39:30;;;;;;;;;;;18.80;71.30;;;;;;4974983;28;19980;-50
2021/11/04 05:41:57;;;;;;;;;;;18.80;71.20;;;;;;4974596;28;19933;-51
2021/11/04 05:44:24;;;;;;;;;;;18.80;71.30;;;;;;4975493;28;19930;-49
2021/11/04 05:46:51;;;;;;;;;;;18.80;71.30;;;;;;4973441;28;19926;-50
2021/11/04 05:49:18;;;;;;;;;;;18.80;71.30;;;;;;4973238;28;19989;-51
2021/11/04 05:51:45;;;;;;;;;;;18.80;71.30;;;;;;4974486;28;20412;-48
2021/11/04 05:54:12;;;;;;;;;;;18.80;71.30;;;;;;4974434;28;19926;-49
2021/11/04 05:56:39;;;;;;;;;;;18.80;71.60;;;;;;4974512;28;19977;-45
2021/11/04 05:59:06;;;;;;;;;;;18.80;71.20;;;;;;4978140;28;19977;-49
2021/11/04 06:01:33;;;;;;;;;;;18.80;71.20;;;;;;4978466;28;20337;-49
2021/11/04 06:04:00;;;;;;;;;;;18.80;71.20;;;;;;4977164;28;19930;-52
2021/11/04 06:06:27;;;;;;;;;;;18.80;71.30;;;;;;4977855;28;19926;-49
2021/11/04 06:08:54;;;;;;;;;;;18.80;71.20;;;;;;4978020;28;19933;-44
2021/11/04 06:11:21;;;;;;;;;;;18.80;71.20;;;;;;4978271;28;20259;-44
2021/11/04 06:13:48;;;;;;;;;;;18.80;71.20;;;;;;4977915;28;19984;-44
2021/11/04 06:16:15;;;;;;;;;;;18.80;71.20;;;;;;4977730;28;19926;-45
2021/11/04 06:18:43;;;;;;;;;;;18.80;71.20;;;;;;4977817;28;19926;-45
2021/11/04 06:21:13;;;;;;;;;;;18.80;71.10;;;;;;4976221;28;19934;-44
2021/11/04 06:23:41;;;;;;;;;;;18.80;71.20;;;;;;4977541;28;19926;-45
2021/11/04 06:26:08;;;;;;;;;;;18.80;71.20;;;;;;4977632;28;19934;-44
2021/11/04 06:28:35;;;;;;;;;;;18.80;71.10;;;;;;4977971;28;19926;-44
2021/11/04 06:31:02;;;;;;;;;;;18.80;71.10;;;;;;4977892;28;19934;-44
2021/11/04 06:33:29;;;;;;;;;;;18.80;71.10;;;;;;4977853;28;20326;-44
2021/11/04 06:35:56;;;;;;;;;;;18.80;71.10;;;;;;4975664;28;20444;-44
2021/11/04 06:38:23;;;;;;;;;;;18.80;71.10;;;;;;4977488;28;20389;-46
2021/11/04 06:40:50;;;;;;;;;;;18.80;71.10;;;;;;4977447;28;19926;-44
2021/11/04 06:43:18;;;;;;;;;;;18.80;71.10;;;;;;4977310;28;19926;-44
2021/11/04 06:45:50;;;;;;;;;;;18.80;71.10;;;;;;4977678;28;20275;-44
2021/11/04 06:48:21;;;;;;;;;;;18.80;71.10;;;;;;4977320;28;19930;-45
2021/11/04 06:50:48;;;;;;;;;;;18.80;71.10;;;;;;4975588;28;19985;-44
2021/11/04 06:53:17;;;;;;;;;;;18.80;71.10;;;;;;4977123;28;19926;-45
2021/11/04 06:55:44;;;;;;;;;;;18.80;71.10;;;;;;4977180;28;19926;-45
2021/11/04 06:58:14;;;;;;;;;;;18.80;71.00;;;;;;4992333;28;20333;-45
2021/11/04 07:00:44;;;;;;;;;;;18.80;71.00;;;;;;4977368;28;19926;-45
2021/11/04 07:03:20;;;;;;;;;;;18.80;71.10;;;;;;4977024;28;20345;-46
2021/11/04 07:05:47;;;;;;;;;;;18.80;71.10;;;;;;4975233;28;20301;-45
2021/11/04 07:08:23;;;;;;;;;;;18.80;71.10;;;;;;4977218;28;20298;-45
2021/11/04 07:10:58;;;;;;;;;;;18.80;71.10;;;;;;4976670;28;19937;-45
2021/11/04 07:13:26;;;;;;;;;;;18.80;71.00;;;;;;4976644;28;19926;-45
2021/11/04 07:15:57;;;;;;;;;;;18.80;71.00;;;;;;4991661;28;19926;-45
2021/11/04 07:18:24;;;;;;;;;;;18.80;71.00;;;;;;4976757;28;19977;-45
2021/11/04 07:21:04;;;;;;;;;;;18.80;70.90;;;;;;4974999;28;20373;-45
2021/11/04 07:23:48;;;;;;;;;;;18.80;70.90;;;;;;4976698;28;20271;-47
2021/11/04 07:26:15;;;;;;;;;;;18.80;70.90;;;;;;4976614;28;19934;-44
2021/11/04 07:28:42;;;;;;;;;;;18.80;70.80;;;;;;4976856;28;20270;-45
2021/11/04 07:31:11;;;;;;;;;;;18.80;70.80;;;;;;4976803;28;19930;-45
2021/11/04 07:33:42;;;;;;;;;;;18.80;70.80;;;;;;4991263;28;19976;-45
2021/11/04 07:36:12;;;;;;;;;;;18.80;70.70;;;;;;4975000;28;20310;-45
2021/11/04 07:38:39;;;;;;;;;;;18.80;70.80;;;;;;4976319;28;20378;-45
2021/11/04 07:41:06;;;;;;;;;;;18.90;70.80;;;;;;4976288;28;19980;-45
2021/11/04 07:43:34;;;;;;;;;;;18.80;70.70;;;;;;4976252;28;19933;-45
2021/11/04 07:46:02;;;;;;;;;;;18.80;70.70;;;;;;4990834;28;19926;-45
2021/11/04 07:48:29;;;;;;;;;;;18.80;70.70;;;;;;4976151;28;19930;-51
2021/11/04 07:50:57;;;;;;;;;;;18.90;70.70;;;;;;4968957;28;19930;-52
2021/11/04 07:53:24;;;;;;;;;;;18.90;70.60;;;;;;4956476;28;19933;-51
2021/11/04 07:55:52;;;;;;;;;;;18.90;70.60;;;;;;4957091;28;19926;-48
2021/11/04 07:58:19;;;;;;;;;;;18.90;70.50;;;;;;4957022;28;20329;-47
2021/11/04 08:00:46;;;;;;;;;;;18.90;70.50;;;;;;4956643;28;19973;-48
2021/11/04 08:03:13;;;;;;;;;;;18.90;71.20;;;;;;4956521;28;19926;-47
2021/11/04 08:05:40;;;;;;;;;;;18.90;70.50;;;;;;4958445;28;19929;-50
2021/11/04 08:08:08;;;;;;;;;;;18.90;70.40;;;;;;4991046;28;19961;-50
2021/11/04 08:10:35;;;;;;;;;;;18.90;70.40;;;;;;4975784;28;20389;-45
2021/11/04 08:13:06;;;;;;;;;;;18.90;70.30;;;;;;4975762;28;19981;-46
2021/11/04 08:15:34;;;;;;;;;;;18.90;70.30;;;;;;4975768;28;20373;-48
2021/11/04 08:18:01;;;;;;;;;;;18.90;70.30;;;;;;4975540;28;19926;-45
2021/11/04 08:20:29;;;;;;;;;;;18.90;70.30;;;;;;4973990;28;19926;-48
2021/11/04 08:22:57;;;;;;;;;;;18.90;70.30;;;;;;4975106;28;19929;-46
2021/11/04 08:25:24;;;;;;;;;;;19.00;70.30;;;;;;4975560;28;19926;-49
2021/11/04 08:27:51;;;;;;;;;;;18.90;70.20;;;;;;4975762;28;20344;-52
2021/11/04 08:30:19;;;;;;;;;;;18.90;70.10;;;;;;4975434;28;19980;-51
2021/11/04 08:32:46;;;;;;;;;;;18.90;70.00;;;;;;4975403;28;19933;-44
2021/11/04 08:35:13;;;;;;;;;;;19.00;70.10;;;;;;4990279;28;19980;-44
2021/11/04 08:37:40;;;;;;;;;;;19.00;70.00;;;;;;4973844;28;19962;-45
2021/11/04 08:40:07;;;;;;;;;;;19.00;70.10;;;;;;4975180;28;19941;-44
2021/11/04 08:42:34;;;;;;;;;;;19.00;69.90;;;;;;4975475;28;19977;-50
2021/11/04 08:45:03;;;;;;;;;;;19.00;69.80;;;;;;4975508;28;19926;-52
2021/11/04 08:47:30;;;;;;;;;;;19.00;69.80;;;;;;4975470;28;19937;-51
2021/11/04 08:49:57;;;;;;;;;;;19.00;69.80;;;;;;4975130;28;19926;-45
2021/11/04 08:52:25;;;;;;;;;;;19.00;69.70;;;;;;4973320;28;19930;-45
2021/11/04 08:54:52;;;;;;;;;;;19.00;69.70;;;;;;4974801;28;19966;-44
2021/11/04 08:57:20;;;;;;;;;;;19.00;69.70;;;;;;4974946;28;19950;-46
2021/11/04 08:59:47;;;;;;;;;;;19.00;69.70;;;;;;4975181;28;20267;-47
2021/11/04 09:02:15;;;;;;;;;;;19.00;69.70;;;;;;4974997;28;19926;-45
2021/11/04 09:04:43;;;;;;;;;;;19.00;69.70;;;;;;4975193;28;19933;-46
2021/11/04 09:07:10;;;;;;;;;;;19.00;69.70;;;;;;4973341;28;19930;-46
2021/11/04 09:09:37;;;;;;;;;;;19.00;69.60;;;;;;4974834;28;19926;-45
2021/11/04 09:12:04;;;;;;;;;;;19.10;69.60;;;;;;4975166;28;19961;-46
2021/11/04 09:14:31;;;;;;;;;;;19.00;69.50;;;;;;4989732;28;19926;-45
2021/11/04 09:16:59;;;;;;;;;;;19.10;69.60;;;;;;4975165;28;20341;-45
2021/11/04 09:19:27;;;;;;;;;;;19.10;69.60;;;;;;4975156;28;19930;-46
2021/11/04 09:21:54;;;;;;;;;;;19.10;69.50;;;;;;4973546;28;19973;-45
2021/11/04 09:24:21;;;;;;;;;;;19.10;69.50;;;;;;4974880;28;19926;-47
2021/11/04 09:26:48;;;;;;;;;;;19.10;69.60;;;;;;4975039;28;20354;-45
2021/11/04 09:29:15;;;;;;;;;;;19.10;69.50;;;;;;4974823;28;19989;-46
2021/11/04 09:31:42;;;;;;;;;;;19.10;69.60;;;;;;4974459;28;19926;-47
2021/11/04 09:34:09;;;;;;;;;;;19.10;69.60;;;;;;4978381;28;20448;-46
2021/11/04 09:36:36;;;;;;;;;;;19.10;69.60;;;;;;4977187;28;19931;-45
2021/11/04 09:39:03;;;;;;;;;;;19.10;69.60;;;;;;4979365;28;19926;-46
2021/11/04 09:41:31;;;;;;;;;;;19.00;69.50;;;;;;4978782;28;19930;-45
2021/11/04 09:44:01;;;;;;;;;;;19.00;69.60;;;;;;4978707;28;19930;-45
2021/11/04 09:46:29;;;;;;;;;;;19.00;69.60;;;;;;4978704;28;19930;-45
2021/11/04 09:48:57;;;;;;;;;;;19.00;69.60;;;;;;4978650;28;20341;-45
2021/11/04 09:51:24;;;;;;;;;;;19.00;69.60;;;;;;4978445;28;19969;-48
2021/11/04 09:53:52;;;;;;;;;;;19.10;69.70;;;;;;4977469;28;19930;-48
2021/11/04 09:56:19;;;;;;;;;;;19.00;69.60;;;;;;4978586;28;19930;-45
2021/11/04 09:58:46;;;;;;;;;;;19.00;69.50;;;;;;4977029;28;19958;-45
2021/11/04 10:01:17;;;;;;;;;;;19.00;69.50;;;;;;4978186;28;20385;-45
2021/11/04 10:03:45;;;;;;;;;;;19.10;69.50;;;;;;4978346;28;19977;-45
2021/11/04 10:06:24;;;;;;;;;;;19.10;69.50;;;;;;4978355;28;19974;-46
2021/11/04 10:08:57;;;;;;;;;;;19.10;69.30;;;;;;4976803;28;19930;-45
2021/11/04 10:11:29;;;;;;;;;;;19.10;69.40;;;;;;4978350;28;19992;-45
2021/11/04 10:14:00;;;;;;;;;;;19.10;69.30;;;;;;4978197;28;19977;-45
2021/11/04 10:16:30;;;;;;;;;;;19.10;69.30;;;;;;4978691;28;19926;-45
2021/11/04 10:19:09;;;;;;;;;;;19.10;69.20;;;;;;4977825;28;19933;-46
2021/11/04 10:21:40;;;;;;;;;;;19.10;69.20;;;;;;4977982;28;20337;-45
2021/11/04 10:24:14;;;;;;;;;;;19.10;69.10;;;;;;4976141;28;19926;-45
2021/11/04 10:26:41;;;;;;;;;;;19.10;69.00;;;;;;4978058;28;19930;-46
2021/11/04 10:29:10;;;;;;;;;;;19.20;69.10;;;;;;4977946;28;20346;-45
2021/11/04 10:31:38;;;;;;;;;;;19.20;69.10;;;;;;4977535;28;19927;-47
2021/11/04 10:34:11;;;;;;;;;;;19.20;69.10;;;;;;4977856;28;19981;-45
2021/11/04 10:36:40;;;;;;;;;;;19.20;69.00;;;;;;4977909;28;19996;-45
2021/11/04 10:39:07;;;;;;;;;;;19.20;69.00;;;;;;4976240;28;20322;-46
2021/11/04 10:41:39;;;;;;;;;;;19.20;68.80;;;;;;4977432;28;19976;-45
2021/11/04 10:44:15;;;;;;;;;;;19.20;68.80;;;;;;4976672;28;20294;-45
2021/11/04 10:46:54;;;;;;;;;;;19.20;68.80;;;;;;4977372;28;20461;-45
2021/11/04 10:49:22;;;;;;;;;;;19.20;68.80;;;;;;4977599;28;19973;-52
2021/11/04 10:51:57;;;;;;;;;;;19.20;68.80;;;;;;4977478;28;19929;-50
2021/11/04 10:54:24;;;;;;;;;;;19.20;68.80;;;;;;4975271;28;19926;-50
2021/11/04 10:56:53;;;;;;;;;;;19.20;68.70;;;;;;4977130;28;20049;-49
2021/11/04 10:59:20;;;;;;;;;;;19.20;68.70;;;;;;4977338;28;19933;-45
2021/11/04 11:01:47;;;;;;;;;;;19.20;68.70;;;;;;4977305;28;19981;-46
2021/11/04 11:04:20;;;;;;;;;;;19.20;68.70;;;;;;4977147;28;19949;-48
2021/11/04 11:06:48;;;;;;;;;;;19.20;68.60;;;;;;4977165;28;20012;-45
2021/11/04 11:09:23;;;;;;;;;;;19.20;68.50;;;;;;4975419;28;19970;-46
2021/11/04 11:11:51;;;;;;;;;;;19.20;68.60;;;;;;4976833;28;19933;-45
2021/11/04 11:14:19;;;;;;;;;;;19.20;68.50;;;;;;4973242;28;19934;-46
2021/11/04 11:16:47;;;;;;;;;;;19.20;68.40;;;;;;4960825;28;20330;-45
2021/11/04 11:19:38;;;;;;;;;;;19.30;68.70;;;;;;4961204;28;19930;-46
2021/11/04 11:22:07;;;;;;;;;;;19.30;68.60;;;;;;4954523;28;20378;-51
2021/11/04 11:24:36;;;;;;;;;;;19.30;68.70;;;;;;4973142;28;19933;-50
2021/11/04 11:27:05;;;;;;;;;;;19.30;68.60;;;;;;4960416;28;19930;-50
2021/11/04 11:29:34;;;;;;;;;;;19.30;68.40;;;;;;4964893;28;19989;-45
2021/11/04 11:32:19;;;;;;;;;;;19.30;68.50;;;;;;4976523;28;19926;-46
2021/11/04 11:34:47;;;;;;;;;;;19.30;68.50;;;;;;4958674;28;19927;-45
2021/11/04 11:37:16;;;;;;;;;;;19.30;68.40;;;;;;4957056;28;19927;-45
2021/11/04 11:40:09;;;;;;;;;;;19.30;68.20;;;;;;4975989;28;20334;-45
2021/11/04 11:42:36;;;;;;;;;;;19.30;68.10;;;;;;4976636;28;20326;-46
2021/11/04 11:45:13;;;;;;;;;;;19.30;68.00;;;;;;4976138;28;20374;-46
2021/11/04 11:47:42;;;;;;;;;;;19.40;68.20;;;;;;4976233;28;20403;-45
2021/11/04 11:50:19;;;;;;;;;;;19.40;68.30;;;;;;4973422;28;20293;-45
2021/11/04 11:52:49;;;;;;;;;;;19.40;68.40;;;;;;4956199;28;19954;-45
2021/11/04 11:55:17;;;;;;;;;;;19.40;68.30;;;;;;4956477;28;19930;-45
2021/11/04 11:58:23;;;;;;;;;;;19.40;68.40;;;;;;4956775;28;19927;-45
2021/11/04 12:00:50;;;;;;;;;;;19.40;68.40;;;;;;4916572;29;19982;-45
2021/11/04 12:03:43;;;;;;;;;;;19.40;68.60;;;;;;4916566;29;20406;-44
2021/11/04 12:06:11;;;;;;;;;;;19.40;68.80;;;;;;4914336;29;20378;-47
2021/11/04 12:08:38;;;;;;;;;;;19.40;68.90;;;;;;4921154;29;20267;-45
2021/11/04 12:11:07;;;;;;;;;;;19.40;69.00;;;;;;4935876;29;19927;-45
2021/11/04 12:13:34;;;;;;;;;;;19.40;69.30;;;;;;4935271;29;20458;-45
2021/11/04 12:16:19;;;;;;;;;;;19.40;69.40;;;;;;4935319;29;19990;-45
2021/11/04 12:18:51;;;;;;;;;;;19.40;69.50;;;;;;4935255;29;19934;-46
2021/11/04 12:21:24;;;;;;;;;;;19.40;69.70;;;;;;4935021;29;19927;-51
2021/11/04 12:23:51;;;;;;;;;;;19.40;69.80;;;;;;4933456;29;19926;-46
2021/11/04 12:26:31;;;;;;;;;;;19.40;69.70;;;;;;4935305;29;19934;-46
2021/11/04 12:28:59;;;;;;;;;;;19.40;69.80;;;;;;4935034;29;19931;-48
2021/11/04 12:31:27;;;;;;;;;;;19.40;69.80;;;;;;4943906;29;19927;-50
2021/11/04 12:33:57;;;;;;;;;;;19.40;69.90;;;;;;4955947;28;19930;-50
2021/11/04 12:36:29;;;;;;;;;;;19.40;69.90;;;;;;4955937;28;19926;-47
2021/11/04 12:38:56;;;;;;;;;;;19.30;69.90;;;;;;4960858;28;20374;-47
2021/11/04 12:41:23;;;;;;;;;;;19.40;70.20;;;;;;4975299;28;19934;-45
2021/11/04 12:43:51;;;;;;;;;;;19.30;70.00;;;;;;4975194;28;20029;-47
2021/11/04 12:46:21;;;;;;;;;;;19.30;70.00;;;;;;4975544;28;19930;-51
2021/11/04 12:48:52;;;;;;;;;;;19.30;69.90;;;;;;4975464;28;19927;-50
2021/11/04 12:51:19;;;;;;;;;;;19.30;70.00;;;;;;4975069;28;19933;-46
2021/11/04 12:53:53;;;;;;;;;;;19.30;69.90;;;;;;4987999;28;19930;-48
2021/11/04 12:56:39;;;;;;;;;;;19.30;69.90;;;;;;4975069;28;19926;-50
2021/11/04 12:59:06;;;;;;;;;;;19.30;69.80;;;;;;4974952;28;20341;-45
2021/11/04 13:01:52;;;;;;;;;;;19.30;69.80;;;;;;4975244;28;19930;-47
2021/11/04 13:04:22;;;;;;;;;;;19.30;69.70;;;;;;4974880;28;19981;-46
2021/11/04 13:06:53;;;;;;;;;;;19.30;69.70;;;;;;4974687;28;19957;-45
2021/11/04 13:09:21;;;;;;;;;;;19.30;69.70;;;;;;4973345;28;20454;-45
2021/11/04 13:12:04;;;;;;;;;;;19.30;69.70;;;;;;4975154;28;19926;-45
2021/11/04 13:14:46;;;;;;;;;;;19.30;69.60;;;;;;4974840;28;20432;-45
2021/11/04 13:17:13;;;;;;;;;;;19.30;69.60;;;;;;4974917;28;19930;-45
2021/11/04 13:19:59;;;;;;;;;;;19.30;69.50;;;;;;4975103;28;19933;-45
2021/11/04 13:22:26;;;;;;;;;;;19.40;69.70;;;;;;4974837;28;20028;-46
2021/11/04 13:24:54;;;;;;;;;;;19.30;69.50;;;;;;4973166;28;20017;-47
2021/11/04 13:27:22;;;;;;;;;;;19.30;69.50;;;;;;4974798;28;20389;-45
2021/11/04 13:29:51;;;;;;;;;;;19.40;69.50;;;;;;4974786;28;20408;-45
2021/11/04 13:32:18;;;;;;;;;;;19.30;69.40;;;;;;4975035;28;19996;-47
2021/11/04 13:34:46;;;;;;;;;;;19.40;69.50;;;;;;4975017;28;19930;-46
2021/11/04 13:37:15;;;;;;;;;;;19.40;69.50;;;;;;4975026;28;19930;-45
2021/11/04 13:39:42;;;;;;;;;;;19.40;69.60;;;;;;4973106;28;19926;-45
2021/11/04 13:42:19;;;;;;;;;;;19.40;69.50;;;;;;4989836;28;20329;-45
2021/11/04 13:44:46;;;;;;;;;;;19.30;69.20;;;;;;4974913;28;20333;-45
2021/11/04 13:47:13;;;;;;;;;;;19.40;69.40;;;;;;4974622;28;19986;-46
2021/11/04 13:49:50;;;;;;;;;;;19.40;69.30;;;;;;4974862;28;19957;-46
2021/11/04 13:52:24;;;;;;;;;;;19.40;69.40;;;;;;4974555;28;19976;-45
2021/11/04 13:54:51;;;;;;;;;;;19.30;69.30;;;;;;4972300;28;19933;-45
2021/11/04 13:57:18;;;;;;;;;;;19.40;69.40;;;;;;4974843;28;19926;-45
2021/11/04 13:59:55;;;;;;;;;;;19.30;69.30;;;;;;4973344;28;19926;-45
2021/11/04 14:02:24;;;;;;;;;;;19.30;69.40;;;;;;4974846;28;19930;-45
2021/11/04 14:04:55;;;;;;;;;;;19.30;69.20;;;;;;4974670;28;19930;-45
2021/11/04 14:07:26;;;;;;;;;;;19.30;69.50;;;;;;4974403;28;19973;-45
2021/11/04 14:09:56;;;;;;;;;;;19.30;69.40;;;;;;4972709;28;19934;-45
2021/11/04 14:12:34;;;;;;;;;;;19.30;69.40;;;;;;4974704;28;19981;-46
2021/11/04 14:15:16;;;;;;;;;;;19.30;69.50;;;;;;4974363;28;20353;-45
2021/11/04 14:17:48;;;;;;;;;;;19.30;69.50;;;;;;4974967;28;20345;-45
2021/11/04 14:20:16;;;;;;;;;;;19.30;69.50;;;;;;4976391;28;19977;-45
2021/11/04 14:22:43;;;;;;;;;;;19.30;69.60;;;;;;4977509;28;19926;-46
2021/11/04 14:25:10;;;;;;;;;;;19.30;69.50;;;;;;4975956;28;20038;-46
2021/11/04 14:27:50;;;;;;;;;;;19.30;69.60;;;;;;4977996;28;20275;-46